Latest Weather Observations for Broome

IDW60801

Issued at 9:34 am WST Friday 24 March 2017 (issued every 30 minutes, with the page automatically refreshed every 10 minutes)

About weather observations | Map of weather stations | Latest weather observations for WA | Other Formats
Station Details ID: 003003 Name: BROOME AIRPORT Lat: -17.95 Lon: 122.24 Height: 7.42 m
Data from the previous 72 hours. | See also: Recent months at Broome
Date/Time
WST
Temp
°C
App
Temp
°C
Dew
Point
°C
Rel
Hum
%
Delta-T
°C
Wind Press
QNH
hPa
Press
MSL
hPa
Rain since
9am
mm
Dir  Spd
km/h
Gust
km/h
Spd
kts
Gust
kts
24/09:00am 29.8 34.0 25.9 79 2.8 NNW 15 20 8 11 1009.3 1009.2 8.8
24/08:30am 29.1 33.5 25.6 81 2.5 NNW 13 15 7 8 1009.2 - 8.8
24/08:00am 28.7 33.1 25.7 84 2.1 NNW 13 19 7 10 1009.3 - 8.8
24/07:30am 28.7 33.3 25.4 82 2.3 NNW 11 15 6 8 1009.3 - 8.8
24/07:00am 28.4 33.5 25.6 85 2.0 NNW 9 17 5 9 1008.9 - 8.8
24/06:30am 26.8 32.6 26.0 95 0.6 N 7 9 4 5 1008.4 - 8.8
24/06:00am 27.8 32.7 25.2 86 1.8 NNW 9 15 5 8 1008.1 1008.0 8.8
24/05:30am 27.6 32.5 25.2 87 1.7 NNW 9 15 5 8 1007.7 - 8.8
24/05:00am 26.0 30.7 25.0 94 0.7 N 9 11 5 6 1007.6 - 8.8
24/04:30am 25.3 28.7 24.1 93 0.8 NNE 13 19 7 10 1007.7 - 8.8
24/04:00am 26.5 31.6 25.6 95 0.6 NNE 9 15 5 8 1007.5 - 8.8
24/03:36am 26.9 31.4 25.8 94 0.8 N 13 28 7 15 1007.5 - 3.6
24/03:30am 26.9 31.6 25.6 93 0.9 NNE 11 19 6 10 1007.1 - 1.0
24/03:00am 27.2 32.1 25.3 89 1.3 NNE 9 15 5 8 1007.2 1007.1 1.0
24/02:30am 27.2 32.1 25.2 89 1.4 N 9 15 5 8 1007.1 - 1.0
24/02:00am 27.4 31.8 25.1 87 1.6 N 11 15 6 8 1007.3 - 1.0
24/01:30am 27.1 32.3 25.1 89 1.4 N 7 11 4 6 1007.5 - 1.0
24/01:00am 26.9 31.6 25.0 89 1.3 NNE 9 11 5 6 1007.7 - 1.0
24/12:30am 27.0 31.4 25.0 89 1.4 NNE 11 13 6 7 1007.8 - 1.0
24/12:00am 27.2 31.1 24.8 87 1.7 N 13 19 7 10 1008.2 1008.1 1.0
 
Date/Time
WST
Temp
°C
App
Temp
°C
Dew
Point
°C
Rel
Hum
%
Delta-T
°C
Wind Press
QNH
hPa
Press
MSL
hPa
Rain since
9am
mm
Dir  Spd
km/h
Gust
km/h
Spd
kts
Gust
kts
23/11:30pm 27.2 30.7 24.8 87 1.7 N 15 20 8 11 1008.5 - 1.0
23/11:00pm 27.0 30.9 24.8 88 1.5 N 13 19 7 10 1008.7 - 1.0
23/10:30pm 26.6 31.7 24.9 90 1.2 N 7 9 4 5 1008.8 - 1.0
23/10:00pm 26.9 31.5 24.7 88 1.5 N 9 13 5 7 1008.6 - 1.0
23/09:30pm 27.2 31.3 24.5 85 1.9 N 11 17 6 9 1008.6 - 1.0
23/09:00pm 27.4 31.0 24.4 84 2.1 N 13 17 7 9 1008.5 1008.4 1.0
23/08:30pm 27.5 30.9 24.0 81 2.4 N 13 22 7 12 1008.5 - 1.0
23/08:00pm 27.5 31.4 24.2 82 2.3 N 11 15 6 8 1008.3 - 1.0
23/07:30pm 27.5 31.4 24.2 82 2.3 N 11 17 6 9 1008.0 - 1.0
23/07:00pm 27.7 31.9 24.1 81 2.5 N 9 11 5 6 1007.2 - 1.0
23/06:30pm 28.1 32.2 23.9 78 2.9 N 9 13 5 7 1007.2 - 1.0
23/06:00pm 28.6 32.0 24.0 76 3.2 N 13 17 7 9 1006.9 1006.8 1.0
23/05:30pm 29.4 31.5 24.1 73 3.7 N 20 28 11 15 1006.7 - 1.0
23/05:00pm 29.3 32.3 24.7 76 3.2 N 17 26 9 14 1006.4 - 1.0
23/04:30pm 29.3 32.3 24.7 76 3.2 N 17 22 9 12 1006.4 - 1.0
23/04:00pm 29.5 31.7 24.3 73 3.6 N 20 28 11 15 1006.1 - 1.0
23/03:30pm 30.3 32.3 24.0 69 4.4 N 20 32 11 17 1006.0 - 1.0
23/03:00pm 29.9 31.2 24.0 70 4.1 N 24 37 13 20 1006.2 1006.1 0.8
23/02:30pm 29.9 30.3 23.8 70 4.2 NNW 28 41 15 22 1006.4 - 0.8
23/02:00pm 30.1 31.1 24.1 70 4.2 N 26 41 14 22 1006.6 - 0.8
23/01:33pm 30.1 30.2 23.9 69 4.3 N 30 48 16 26 1006.8 - 0.8
23/01:30pm 30.1 30.1 23.8 69 4.4 N 30 44 16 24 1006.8 - 0.8
23/01:00pm 30.1 32.3 24.8 73 3.7 N 22 39 12 21 1006.8 - 0.8
23/12:30pm 29.4 32.5 25.7 80 2.6 N 20 30 11 16 1007.0 - 0.8
23/12:00pm 27.8 30.4 25.5 87 1.6 N 22 32 12 17 1007.4 1007.3 0.8
23/11:30am 29.5 32.4 26.0 81 2.5 N 22 30 12 16 1007.8 - 0.6
23/11:04am 27.8 31.7 26.1 90 1.2 N 17 26 9 14 1008.1 - 0.6
23/11:00am 27.0 30.1 25.4 91 1.1 N 19 30 10 16 1008.1 - 0.6
23/10:46am 26.5 28.3 25.4 94 0.8 N 26 43 14 23 1008.5 - 0.4
23/10:42am 27.8 30.6 25.2 86 1.8 N 20 33 11 18 1008.4 - 0.0
23/10:30am 29.4 30.8 24.2 73 3.6 N 24 33 13 18 1008.3 - 0.0
23/10:00am 29.8 30.4 24.2 72 3.9 N 28 37 15 20 1008.0 - 0.0
23/09:30am 29.9 31.9 24.6 73 3.7 NNE 22 33 12 18 1008.1 - 0.0
23/09:00am 28.8 31.0 24.8 79 2.8 NNE 22 43 12 23 1008.3 1008.2 3.0
23/08:30am 28.0 30.1 24.7 82 2.3 NNE 22 32 12 17 1008.5 - 3.0
23/08:00am 27.8 30.8 25.2 86 1.8 NE 19 26 10 14 1008.3 - 3.0
23/07:30am 27.1 30.3 25.0 88 1.5 NNE 17 26 9 14 1008.1 - 3.0
23/07:00am 26.4 30.8 25.1 92 0.9 NNE 11 15 6 8 1007.7 - 3.0
23/06:30am 26.1 30.5 25.0 94 0.8 NE 11 17 6 9 1007.5 - 2.8
23/06:00am 25.9 30.6 24.9 94 0.7 NNE 9 11 5 6 1007.4 1007.3 2.8
23/05:30am 25.9 30.2 24.9 94 0.7 NE 11 15 6 8 1007.2 - 2.8
23/05:00am 26.1 30.7 24.8 92 0.9 NNE 9 11 5 6 1006.9 - 2.8
23/04:30am 26.2 29.7 24.8 92 1.0 N 15 19 8 10 1006.5 - 2.8
23/04:00am 26.0 29.9 24.9 94 0.8 N 13 19 7 10 1006.5 - 2.8
23/03:30am 25.5 29.8 24.9 96 0.4 NNE 11 15 6 8 1006.3 - 2.8
23/03:00am 25.4 29.6 24.8 96 0.4 NNE 11 17 6 9 1006.3 1006.2 2.8
23/02:34am 25.4 29.2 24.7 96 0.5 N 13 19 7 10 1006.3 - 2.8
23/02:30am 25.4 29.2 24.7 96 0.5 N 13 20 7 11 1006.3 - 2.8
23/02:22am 25.5 28.5 24.6 95 0.6 N 17 26 9 14 1006.5 - 2.6
23/02:00am 25.7 28.6 24.5 93 0.8 N 17 24 9 13 1006.6 - 1.2
23/01:30am 26.3 29.3 24.7 91 1.1 N 17 24 9 13 1006.5 - 1.2
23/01:00am 27.2 30.4 24.3 84 2.0 NNE 15 24 8 13 1006.7 - 1.2
23/12:30am 27.3 30.0 24.1 83 2.2 NNE 17 26 9 14 1007.0 - 1.2
23/12:00am 27.7 30.9 24.4 82 2.3 NNE 15 22 8 12 1007.2 1007.1 1.2
 
Date/Time
WST
Temp
°C
App
Temp
°C
Dew
Point
°C
Rel
Hum
%
Delta-T
°C
Wind Press
QNH
hPa
Press
MSL
hPa
Rain since
9am
mm
Dir  Spd
km/h
Gust
km/h
Spd
kts
Gust
kts
22/11:30pm 27.7 30.6 24.4 82 2.3 NNE 17 22 9 12 1007.3 - 1.2
22/11:00pm 27.5 31.4 24.3 83 2.2 NE 11 15 6 8 1007.5 - 1.2
22/10:30pm 27.6 31.2 24.3 82 2.3 NE 13 17 7 9 1007.8 - 1.2
22/10:00pm 27.6 31.0 24.1 81 2.4 NE 13 19 7 10 1008.2 - 1.2
22/09:30pm 27.8 31.5 23.9 79 2.7 NE 11 15 6 8 1008.3 - 1.2
22/09:00pm 27.9 31.5 23.7 78 2.9 NE 11 13 6 7 1008.2 1008.1 1.2
22/08:30pm 27.8 32.3 24.0 80 2.6 NNE 7 11 4 6 1008.0 - 1.2
22/08:00pm 28.7 31.8 23.6 74 3.5 N 13 17 7 9 1007.9 - 1.2
22/07:30pm 28.9 32.5 23.7 73 3.6 N 11 15 6 8 1007.6 - 1.2
22/07:00pm 29.5 32.0 23.1 68 4.4 N 15 20 8 11 1007.0 - 1.2
22/06:30pm 30.0 32.7 22.8 65 4.9 N 13 17 7 9 1006.6 - 1.2
22/06:00pm 30.4 32.7 22.8 64 5.2 NNE 15 26 8 14 1005.9 1005.8 1.2
22/05:30pm 31.1 32.9 22.6 60 5.8 N 17 26 9 14 1005.3 - 1.2
22/05:00pm 31.7 32.4 22.2 57 6.5 N 22 32 12 17 1005.2 - 1.2
22/04:30pm 32.1 32.3 22.1 55 6.8 N 24 35 13 19 1004.9 - 1.2
22/04:00pm 32.9 33.6 23.6 58 6.5 N 26 43 14 23 1004.4 - 1.2
22/03:30pm 33.6 33.1 22.9 53 7.4 N 30 43 16 23 1004.2 - 1.2
22/03:00pm 33.0 32.8 22.7 54 7.1 N 28 44 15 24 1004.2 1004.1 1.2
22/02:48pm 33.8 33.7 23.6 55 7.1 N 30 43 16 23 1004.1 - 1.2
22/02:30pm 33.4 38.6 24.8 60 6.1 SW 6 19 3 10 1004.3 - 1.2
22/02:00pm 29.7 33.2 23.6 69 4.2 S 11 15 6 8 1004.5 - 1.2
22/01:55pm 28.4 30.9 24.7 80 2.6 ESE 20 33 11 18 1004.7 - 1.2
22/01:47pm 32.8 35.1 24.4 61 5.9 N 20 24 11 13 1004.8 - 0.0
22/01:30pm 32.9 35.6 25.0 63 5.6 NNW 20 32 11 17 1004.8 - 0.0
22/01:00pm 32.4 34.4 25.8 68 4.7 NW 26 37 14 20 1005.5 - 0.0
22/12:30pm 35.3 36.7 22.9 48 8.6 NNE 20 30 11 16 1005.8 - 0.0
22/12:00pm 34.1 35.8 23.0 52 7.7 NE 19 28 10 15 1006.4 1006.3 0.0
22/11:30am 33.2 35.4 23.9 58 6.5 NE 19 22 10 12 1007.0 - 0.0
22/11:00am 33.0 34.8 23.5 57 6.6 NNE 20 30 11 16 1007.6 - 0.0
22/10:30am 32.7 35.5 24.3 61 5.9 NNE 17 28 9 15 1007.8 - 0.0
22/10:00am 31.5 33.7 24.2 65 5.1 NNE 20 33 11 18 1008.3 - 0.0
22/09:30am 30.6 33.6 25.2 73 3.8 NE 19 26 10 14 1008.5 - 0.0
22/09:00am 29.9 33.4 25.5 77 3.1 NNE 17 26 9 14 1008.8 1008.7 2.6
22/08:30am 29.0 32.2 25.8 83 2.3 NE 20 28 11 15 1009.1 - 2.6
22/08:00am 28.6 33.1 26.4 88 1.6 NE 15 20 8 11 1008.8 - 2.6
22/07:30am 27.7 32.3 26.0 90 1.2 ENE 13 17 7 9 1008.7 - 2.6
22/07:00am 27.2 32.1 25.8 92 1.0 E 11 17 6 9 1008.4 - 2.6
22/06:30am 27.0 32.2 25.7 93 0.9 ENE 9 13 5 7 1008.1 - 2.6
22/06:00am 26.7 31.8 25.6 94 0.8 E 9 11 5 6 1007.5 1007.4 2.6
22/05:30am 26.7 31.8 25.6 94 0.8 E 9 11 5 6 1006.9 - 2.6
22/05:00am 26.8 32.4 25.7 94 0.8 E 7 7 4 4 1006.8 - 2.6
22/04:30am 26.7 32.2 25.6 94 0.8 ENE 7 9 4 5 1006.6 - 2.6
22/04:00am 26.7 32.3 25.7 94 0.7 NE 7 9 4 5 1006.7 - 2.6
22/03:30am 26.8 32.4 25.7 94 0.8 NE 7 7 4 4 1006.9 - 2.6
22/03:00am 26.8 32.6 25.7 94 0.8 ENE 6 9 3 5 1006.8 1006.7 2.6
22/02:30am 26.7 32.3 25.7 94 0.7 ENE 7 9 4 5 1006.6 - 2.6
22/02:00am 26.7 32.2 25.6 94 0.8 NE 7 9 4 5 1006.8 - 2.6
22/01:30am 26.9 32.8 25.3 91 1.1 NE 4 7 2 4 1007.1 - 2.6
22/01:00am 27.1 32.3 25.1 89 1.4 N 7 11 4 6 1007.3 - 2.6
22/12:30am 26.9 32.2 25.2 90 1.2 NNE 7 9 4 5 1007.7 - 2.6
22/12:00am 26.8 31.6 25.1 90 1.2 ENE 9 11 5 6 1007.9 1007.8 2.6
 
Date/Time
WST
Temp
°C
App
Temp
°C
Dew
Point
°C
Rel
Hum
%
Delta-T
°C
Wind Press
QNH
hPa
Press
MSL
hPa
Rain since
9am
mm
Dir  Spd
km/h
Gust
km/h
Spd
kts
Gust
kts
21/11:30pm 26.8 31.6 25.1 90 1.2 NE 9 11 5 6 1008.2 - 2.6
21/11:00pm 26.9 31.6 25.0 89 1.3 ENE 9 11 5 6 1008.2 - 2.6
21/10:30pm 27.9 31.3 24.1 80 2.6 N 13 17 7 9 1008.0 - 2.6
21/10:00pm 28.0 32.0 24.4 81 2.5 N 11 17 6 9 1008.2 - 2.6
21/09:30pm 28.0 32.3 24.9 83 2.2 N 11 15 6 8 1008.5 - 2.6
21/09:00pm 28.2 33.4 25.7 86 1.8 N 9 15 5 8 1008.7 1008.6 2.6
21/08:30pm 28.4 33.5 25.6 85 2.0 N 9 15 5 8 1008.8 - 2.6
21/08:00pm 28.1 34.1 26.1 89 1.4 N 6 9 3 5 1008.3 - 2.6
21/07:30pm 28.1 33.9 26.0 88 1.5 NNE 7 9 4 5 1007.5 - 2.6
21/07:00pm 28.9 34.1 25.1 80 2.7 NNW 7 9 4 5 1006.8 - 2.6
21/06:30pm 28.6 34.0 25.5 83 2.2 NNW 7 9 4 5 1006.2 - 2.6
21/06:00pm 28.8 36.0 26.1 85 1.9 CALM 0 0 0 0 1005.7 1005.6 2.6
21/05:30pm 27.8 34.3 25.1 85 1.9 CALM 0 0 0 0 1005.2 - 2.6
21/05:00pm 27.9 33.6 23.8 78 2.8 CALM 0 6 0 3 1005.3 - 2.6
21/04:46pm 28.0 32.1 23.3 75 3.2 N 7 9 4 5 1005.3 - 2.6
21/04:30pm 27.4 29.8 23.0 77 3.0 NE 15 26 8 14 1005.6 - 2.4
21/04:28pm 27.5 30.1 24.0 81 2.4 NNE 17 26 9 14 1005.7 - 2.2
21/04:00pm 28.3 30.1 23.2 74 3.5 NW 19 24 10 13 1005.3 - 0.8
21/03:30pm 30.5 34.5 26.2 78 3.1 WNW 17 22 9 12 1005.2 - 0.8
21/03:00pm 31.4 35.7 26.1 73 3.8 W 15 20 8 11 1005.2 1005.1 0.8
21/02:30pm 29.9 33.4 26.0 79 2.8 W 19 28 10 15 1005.6 - 0.4
21/02:00pm 31.7 33.8 23.8 63 5.5 WNW 19 26 10 14 1005.6 - 0.0
21/01:30pm 33.1 36.2 24.1 59 6.3 S 15 19 8 10 1005.6 - 0.0
21/01:00pm 33.3 36.7 24.0 58 6.5 ESE 13 22 7 12 1006.0 - 0.0
21/12:30pm 32.9 37.0 24.0 59 6.2 NE 9 19 5 10 1006.8 - 0.0
21/12:00pm 32.3 36.8 23.7 60 6.0 N 6 17 3 9 1007.5 1007.4 0.0
21/11:30am 31.9 35.5 23.7 62 5.7 N 11 17 6 9 1008.1 - 0.0
21/11:00am 30.8 33.2 22.9 62 5.4 NNE 15 19 8 10 1008.7 - 0.0
21/10:30am 30.7 33.4 22.8 62 5.4 NE 13 19 7 10 1008.7 - 0.0
21/10:00am 30.5 32.9 22.3 61 5.6 NE 13 20 7 11 1009.0 - 0.0

Other Formats:

Comma delimited format used in spreadsheet applications
http://www.bom.gov.au/fwo/IDW60801/IDW60801.94203.axf

JavaScript Object Notation format (JSON) in row-major order
http://www.bom.gov.au/fwo/IDW60801/IDW60801.94203.json